createdAt,value
2017-11-11T00:00:10.644Z,1007.09
2017-11-11T00:01:19.269Z,1007.02
2017-11-11T00:02:27.879Z,1007.08
2017-11-11T00:03:36.504Z,1007.04
2017-11-11T00:04:45.127Z,1007.03
2017-11-11T00:05:53.760Z,1007.05
2017-11-11T00:07:02.379Z,1007.1
2017-11-11T00:08:10.997Z,1007.07
2017-11-11T00:09:19.653Z,1007.09
2017-11-11T00:10:28.247Z,1007.08
2017-11-11T00:11:36.863Z,1007.08
2017-11-11T00:12:45.486Z,1007.12
2017-11-11T00:13:54.109Z,1007.1
2017-11-11T00:15:02.726Z,1007.09
2017-11-11T00:16:11.350Z,1007.07
2017-11-11T00:17:19.978Z,1007.09
2017-11-11T00:18:28.598Z,1007.13
2017-11-11T00:19:37.227Z,1007.12
2017-11-11T00:20:45.843Z,1007.16
2017-11-11T00:21:54.466Z,1007.06
2017-11-11T00:23:03.088Z,1007.05
2017-11-11T00:24:11.702Z,1007.1
2017-11-11T00:25:20.666Z,1007.13
2017-11-11T00:26:29.293Z,1007.12
2017-11-11T00:27:37.913Z,1007.05
2017-11-11T00:28:46.539Z,1007.07
2017-11-11T00:29:55.151Z,1007.09
2017-11-11T00:31:03.778Z,1007.03
2017-11-11T00:32:12.399Z,1007.1
2017-11-11T00:33:21.015Z,1007.11
2017-11-11T00:34:29.644Z,1007.1
2017-11-11T00:35:38.262Z,1007.11
2017-11-11T00:36:46.888Z,1007.09
2017-11-11T00:37:55.512Z,1007.07
2017-11-11T00:39:04.127Z,1007.06
2017-11-11T00:40:12.748Z,1007.14
2017-11-11T00:41:21.372Z,1007.05
2017-11-11T00:42:29.988Z,1007.06
2017-11-11T00:43:38.609Z,1007
2017-11-11T00:44:47.234Z,1007.02
2017-11-11T00:45:55.856Z,1007.04
2017-11-11T00:47:04.472Z,1007.04
2017-11-11T00:48:13.101Z,1007.04
2017-11-11T00:49:21.725Z,1007.02
2017-11-11T00:50:30.346Z,1006.98
2017-11-11T00:51:38.957Z,1007.02
2017-11-11T00:52:47.583Z,1007
2017-11-11T00:53:56.205Z,1007.01
2017-11-11T00:55:04.826Z,1006.96
2017-11-11T00:56:13.443Z,1007.05
2017-11-11T00:57:22.418Z,1007
2017-11-11T00:58:31.035Z,1007.02
2017-11-11T00:59:39.661Z,1007
2017-11-11T01:00:48.287Z,1007
2017-11-11T01:01:56.907Z,1007
2017-11-11T01:03:05.524Z,1006.97
2017-11-11T01:04:14.152Z,1006.89
2017-11-11T01:05:23.114Z,1006.89
2017-11-11T01:06:31.741Z,1006.98
2017-11-11T01:07:40.701Z,1006.99
2017-11-11T01:08:49.317Z,1007
2017-11-11T01:09:57.948Z,1007.01
2017-11-11T01:11:06.565Z,1006.92
2017-11-11T01:12:15.185Z,1006.92
2017-11-11T01:13:23.810Z,1006.89
2017-11-11T01:14:33.103Z,1006.85
2017-11-11T01:15:41.717Z,1006.85
2017-11-11T01:16:50.340Z,1006.86
2017-11-11T01:17:58.959Z,1006.85
2017-11-11T01:19:07.592Z,1006.87
2017-11-11T01:20:16.211Z,1006.82
2017-11-11T01:21:24.829Z,1006.81
2017-11-11T01:22:33.451Z,1006.78
2017-11-11T01:23:42.074Z,1006.8
2017-11-11T01:24:51.039Z,1006.69
2017-11-11T01:25:59.642Z,1006.74
2017-11-11T01:27:08.262Z,1006.74
2017-11-11T01:28:16.889Z,1006.73
2017-11-11T01:29:25.512Z,1006.73
2017-11-11T01:30:34.129Z,1006.72
2017-11-11T01:31:42.754Z,1006.67
2017-11-11T01:32:51.369Z,1006.66
2017-11-11T01:33:59.997Z,1006.68
2017-11-11T01:35:08.617Z,1006.68
2017-11-11T01:36:17.241Z,1006.67
2017-11-11T01:37:25.868Z,1006.68
2017-11-11T01:38:34.485Z,1006.66
2017-11-11T01:39:43.105Z,1006.62
2017-11-11T01:40:51.728Z,1006.65
2017-11-11T01:42:00.352Z,1006.58
2017-11-11T01:43:08.971Z,1006.55
2017-11-11T01:44:17.600Z,1006.51
2017-11-11T01:45:26.217Z,1006.46
2017-11-11T01:46:35.186Z,1006.47
2017-11-11T01:47:43.816Z,1006.48
2017-11-11T01:48:52.436Z,1006.5
2017-11-11T01:50:01.062Z,1006.48
2017-11-11T01:51:09.684Z,1006.43
2017-11-11T01:52:18.295Z,1006.47
2017-11-11T01:53:26.918Z,1006.44
2017-11-11T01:54:35.545Z,1006.43
2017-11-11T01:55:44.158Z,1006.39
2017-11-11T01:56:52.784Z,1006.4
2017-11-11T01:58:01.407Z,1006.37
2017-11-11T01:59:10.025Z,1006.33
2017-11-11T02:00:18.642Z,1006.31
2017-11-11T02:01:27.280Z,1006.3
2017-11-11T02:02:35.889Z,1006.26
2017-11-11T02:03:44.844Z,1006.27
2017-11-11T02:04:53.459Z,1006.29
2017-11-11T02:06:02.087Z,1006.25
2017-11-11T02:07:10.708Z,1006.29
2017-11-11T02:08:19.330Z,1006.24
2017-11-11T02:09:27.951Z,1006.17
2017-11-11T02:10:36.578Z,1006.23
2017-11-11T02:11:45.224Z,1006.23
2017-11-11T02:12:53.817Z,1006.24
2017-11-11T02:14:02.444Z,1006.23
2017-11-11T02:15:11.064Z,1006.21
2017-11-11T02:16:19.682Z,1006.17
2017-11-11T02:17:28.299Z,1006.16
2017-11-11T02:18:36.920Z,1006.12
2017-11-11T02:19:45.548Z,1006.16
2017-11-11T02:20:54.168Z,1006.15
2017-11-11T02:22:02.786Z,1006.11
2017-11-11T02:23:11.415Z,1006.11
2017-11-11T02:24:20.028Z,1006.04
2017-11-11T02:25:28.651Z,1006.05
2017-11-11T02:26:37.273Z,1006.09
2017-11-11T02:27:46.226Z,1006.06
2017-11-11T02:28:54.854Z,1006.08
2017-11-11T02:30:03.476Z,1006.09
2017-11-11T02:31:12.101Z,1006.09
2017-11-11T02:32:20.716Z,1006.09
2017-11-11T02:33:29.338Z,1006.07
2017-11-11T02:34:37.964Z,1006.1
2017-11-11T02:35:46.587Z,1006.14
2017-11-11T02:36:55.202Z,1006.09
2017-11-11T02:38:03.830Z,1006.06
2017-11-11T02:39:12.449Z,1006.12
2017-11-11T02:40:21.067Z,1006.14
2017-11-11T02:41:29.697Z,1006.18
2017-11-11T02:42:38.310Z,1006.22
2017-11-11T02:43:46.931Z,1006.16
2017-11-11T02:44:55.556Z,1006.11
2017-11-11T02:46:04.175Z,1006.11
2017-11-11T02:47:12.802Z,1006.08
2017-11-11T02:48:21.422Z,1005.99
2017-11-11T02:49:30.042Z,1005.95
2017-11-11T02:50:38.668Z,1006.02
2017-11-11T02:51:47.619Z,1006.02
2017-11-11T02:52:56.236Z,1006.01
2017-11-11T02:54:04.864Z,1005.96
2017-11-11T02:55:13.484Z,1005.92
2017-11-11T02:56:22.101Z,1005.91
2017-11-11T02:57:30.727Z,1005.92
2017-11-11T02:58:39.350Z,1005.9
2017-11-11T02:59:47.966Z,1005.88
2017-11-11T03:00:56.598Z,1005.91
2017-11-11T03:02:05.568Z,1005.84
2017-11-11T03:03:14.191Z,1005.87
2017-11-11T03:04:22.814Z,1005.79
2017-11-11T03:05:31.429Z,1005.82
2017-11-11T03:06:40.052Z,1005.79
2017-11-11T03:07:48.674Z,1005.84
2017-11-11T03:08:57.288Z,1005.83
2017-11-11T03:10:06.267Z,1005.74
2017-11-11T03:11:14.889Z,1005.68
2017-11-11T03:12:23.508Z,1005.65
2017-11-11T03:13:32.127Z,1005.71
2017-11-11T03:14:40.754Z,1005.68
2017-11-11T03:15:49.371Z,1005.65
2017-11-11T03:16:58.342Z,1005.71
2017-11-11T03:18:06.956Z,1005.73
2017-11-11T03:19:15.581Z,1005.64
2017-11-11T03:20:24.201Z,1005.65
2017-11-11T03:21:32.818Z,1005.64
2017-11-11T03:22:41.447Z,1005.66
2017-11-11T03:23:50.064Z,1005.75
2017-11-11T03:24:58.685Z,1005.7
2017-11-11T03:26:07.309Z,1005.65
2017-11-11T03:27:15.922Z,1005.66
2017-11-11T03:28:24.544Z,1005.64
2017-11-11T03:29:33.170Z,1005.6
2017-11-11T03:30:41.801Z,1005.6
2017-11-11T03:31:50.433Z,1005.55
2017-11-11T03:32:59.045Z,1005.55
2017-11-11T03:34:07.669Z,1005.55
2017-11-11T03:35:16.291Z,1005.54
2017-11-11T03:36:24.908Z,1005.57
2017-11-11T03:37:33.530Z,1005.57
2017-11-11T03:38:42.150Z,1005.55
2017-11-11T03:39:50.769Z,1005.48
2017-11-11T03:40:59.386Z,1005.46
2017-11-11T03:42:08.367Z,1005.45
2017-11-11T03:43:16.984Z,1005.41
2017-11-11T03:44:25.607Z,1005.35
2017-11-11T03:45:34.224Z,1005.34
2017-11-11T03:46:42.877Z,1005.38
2017-11-11T03:47:51.473Z,1005.39
2017-11-11T03:49:00.093Z,1005.33
2017-11-11T03:50:08.715Z,1005.32
2017-11-11T03:51:17.336Z,1005.26
2017-11-11T03:52:25.958Z,1005.28
2017-11-11T03:53:34.576Z,1005.27
2017-11-11T03:54:43.203Z,1005.28
2017-11-11T03:55:51.825Z,1005.3
2017-11-11T03:57:00.445Z,1005.31
2017-11-11T03:58:09.401Z,1005.29
2017-11-11T03:59:18.015Z,1005.26
2017-11-11T04:00:26.645Z,1005.28
2017-11-11T04:01:35.273Z,1005.23
2017-11-11T04:02:43.887Z,1005.23
2017-11-11T04:03:52.518Z,1005.22
2017-11-11T04:05:01.130Z,1005.26
2017-11-11T04:06:09.749Z,1005.2
2017-11-11T04:07:18.371Z,1005.28
2017-11-11T04:08:26.994Z,1005.3
2017-11-11T04:09:35.941Z,1005.28
2017-11-11T04:10:44.561Z,1005.26
2017-11-11T04:11:53.186Z,1005.2
2017-11-11T04:13:01.805Z,1005.23
2017-11-11T04:14:10.433Z,1005.17
2017-11-11T04:15:19.051Z,1005.18
2017-11-11T04:16:27.671Z,1005.2
2017-11-11T04:17:36.295Z,1005.25
2017-11-11T04:18:44.909Z,1005.16
2017-11-11T04:19:53.535Z,1005.18
2017-11-11T04:21:02.155Z,1005.17
2017-11-11T04:22:10.776Z,1005.15
2017-11-11T04:23:19.397Z,1005.14
2017-11-11T04:24:28.015Z,1005.15
2017-11-11T04:25:36.641Z,1005.11
2017-11-11T04:26:45.264Z,1005.16
2017-11-11T04:27:53.877Z,1005.16
2017-11-11T04:29:02.500Z,1005.17
2017-11-11T04:30:11.124Z,1005.19
2017-11-11T04:31:19.763Z,1005.17
2017-11-11T04:32:28.372Z,1005.16
2017-11-11T04:33:36.990Z,1005.13
2017-11-11T04:34:45.616Z,1005.13
2017-11-11T04:35:54.240Z,1005.12
2017-11-11T04:37:02.855Z,1005.16
2017-11-11T04:38:11.809Z,1005.19
2017-11-11T04:39:20.428Z,1005.14
2017-11-11T04:40:29.042Z,1005.1
2017-11-11T04:41:37.670Z,1005.06
2017-11-11T04:42:46.295Z,1005.09
2017-11-11T04:43:54.919Z,1005.06
2017-11-11T04:45:03.540Z,1005.06
2017-11-11T04:46:12.167Z,1005.12
2017-11-11T04:47:20.777Z,1005.1
2017-11-11T04:48:29.402Z,1005.05
2017-11-11T04:49:38.017Z,1005.03
2017-11-11T04:50:46.639Z,1005.02
2017-11-11T04:51:55.263Z,1005.03
2017-11-11T04:53:03.893Z,1004.99
2017-11-11T04:54:12.510Z,1004.96
2017-11-11T04:55:21.140Z,1004.92
2017-11-11T04:56:29.763Z,1005.03
2017-11-11T04:57:38.386Z,1004.93
2017-11-11T04:58:46.999Z,1004.94
2017-11-11T04:59:55.629Z,1004.89
2017-11-11T05:01:04.253Z,1004.8
2017-11-11T05:02:12.868Z,1004.8
2017-11-11T05:03:21.487Z,1004.8
2017-11-11T05:04:30.115Z,1004.76
2017-11-11T05:05:38.732Z,1004.81
2017-11-11T05:06:47.363Z,1004.8
2017-11-11T05:07:55.985Z,1004.68
2017-11-11T05:09:04.611Z,1004.69
2017-11-11T05:10:13.235Z,1004.7
2017-11-11T05:11:21.858Z,1004.73
2017-11-11T05:12:30.461Z,1004.77
2017-11-11T05:13:39.091Z,1004.69
2017-11-11T05:14:47.711Z,1004.71
2017-11-11T05:15:56.327Z,1004.73
2017-11-11T05:17:04.957Z,1004.71
2017-11-11T05:18:13.577Z,1004.7
2017-11-11T05:19:22.198Z,1004.68
2017-11-11T05:20:30.825Z,1004.67
2017-11-11T05:21:39.447Z,1004.72
2017-11-11T05:22:48.068Z,1004.7
2017-11-11T05:23:56.687Z,1004.69
2017-11-11T05:25:05.308Z,1004.71
2017-11-11T05:26:14.268Z,1004.66
2017-11-11T05:27:22.882Z,1004.66
2017-11-11T05:28:31.505Z,1004.61
2017-11-11T05:29:40.174Z,1004.63
2017-11-11T05:30:48.794Z,1004.62
2017-11-11T05:31:57.424Z,1004.61
2017-11-11T05:33:06.043Z,1004.55
2017-11-11T05:34:14.664Z,1004.58
2017-11-11T05:35:23.293Z,1004.52
2017-11-11T05:36:31.912Z,1004.59
2017-11-11T05:37:40.537Z,1004.5
2017-11-11T05:38:49.162Z,1004.46
2017-11-11T05:39:57.786Z,1004.44
2017-11-11T05:41:06.400Z,1004.48
2017-11-11T05:42:15.040Z,1004.47
2017-11-11T05:43:23.667Z,1004.43
2017-11-11T05:44:32.620Z,1004.42
2017-11-11T05:45:41.238Z,1004.39
2017-11-11T05:46:49.857Z,1004.37
2017-11-11T05:47:58.481Z,1004.36
2017-11-11T05:49:07.106Z,1004.34
2017-11-11T05:50:15.721Z,1004.32
2017-11-11T05:51:24.346Z,1004.31
2017-11-11T05:52:32.971Z,1004.31
2017-11-11T05:53:41.582Z,1004.29
2017-11-11T05:54:50.206Z,1004.26
2017-11-11T05:55:58.828Z,1004.23
2017-11-11T05:57:07.452Z,1004.25
2017-11-11T05:58:16.077Z,1004.24
2017-11-11T05:59:24.692Z,1004.22
2017-11-11T06:00:33.315Z,1004.21
2017-11-11T06:01:41.934Z,1004.26
2017-11-11T06:02:50.551Z,1004.33
2017-11-11T06:03:59.178Z,1004.22
2017-11-11T06:05:07.800Z,1004.16
2017-11-11T06:06:16.416Z,1004.17
2017-11-11T06:07:25.034Z,1004.15
2017-11-11T06:08:33.663Z,1004.17
2017-11-11T06:09:42.288Z,1004.19
2017-11-11T06:10:50.905Z,1004.22
2017-11-11T06:11:59.520Z,1004.27
2017-11-11T06:13:08.142Z,1004.24
2017-11-11T06:14:17.108Z,1004.24
2017-11-11T06:15:25.731Z,1004.24
2017-11-11T06:16:34.354Z,1004.21
2017-11-11T06:17:42.980Z,1004.24
2017-11-11T06:18:51.602Z,1004.2
2017-11-11T06:20:00.581Z,1004.21
2017-11-11T06:21:09.203Z,1004.26
2017-11-11T06:22:17.826Z,1004.2
2017-11-11T06:23:26.451Z,1004.2
2017-11-11T06:24:35.067Z,1004.16
2017-11-11T06:25:43.699Z,1004.19
2017-11-11T06:26:52.312Z,1004.25
2017-11-11T06:28:01.267Z,1004.22
2017-11-11T06:29:09.888Z,1004.21
2017-11-11T06:30:18.503Z,1004.2
2017-11-11T06:31:27.124Z,1004.24
2017-11-11T06:32:35.748Z,1004.24
2017-11-11T06:33:44.372Z,1004.22
2017-11-11T06:34:52.989Z,1004.19
2017-11-11T06:36:01.617Z,1004.17
2017-11-11T06:37:10.254Z,1004.15
2017-11-11T06:38:18.862Z,1004.15
2017-11-11T06:39:27.492Z,1004.14
2017-11-11T06:40:36.106Z,1004.12
2017-11-11T06:41:44.728Z,1004.06
2017-11-11T06:42:53.348Z,1004.12
2017-11-11T06:44:01.999Z,1004.1
2017-11-11T06:45:10.603Z,1004.06
2017-11-11T06:46:19.220Z,1004.02
2017-11-11T06:47:28.180Z,1004
2017-11-11T06:48:36.795Z,1003.94
2017-11-11T06:49:45.421Z,1003.92
2017-11-11T06:50:54.045Z,1003.94
2017-11-11T06:52:02.665Z,1003.91
2017-11-11T06:53:11.281Z,1003.92
2017-11-11T06:54:19.913Z,1003.84
2017-11-11T06:55:28.532Z,1003.85
2017-11-11T06:56:37.157Z,1003.84
2017-11-11T06:57:45.775Z,1003.86
2017-11-11T06:58:54.395Z,1003.86
2017-11-11T07:00:03.017Z,1003.87
2017-11-11T07:01:11.974Z,1003.87
2017-11-11T07:02:20.588Z,1003.87
2017-11-11T07:03:29.216Z,1003.89
2017-11-11T07:04:37.835Z,1003.92
2017-11-11T07:05:46.454Z,1003.92
2017-11-11T07:06:55.082Z,1003.95
2017-11-11T07:08:03.707Z,1003.92
2017-11-11T07:09:12.321Z,1003.9
2017-11-11T07:10:20.942Z,1003.91
2017-11-11T07:11:29.557Z,1003.91
2017-11-11T07:12:38.537Z,1003.88
2017-11-11T07:13:47.157Z,1003.89
2017-11-11T07:14:55.777Z,1003.92
2017-11-11T07:16:04.407Z,1003.87
2017-11-11T07:17:13.024Z,1003.91
2017-11-11T07:18:21.649Z,1003.88
2017-11-11T07:19:30.268Z,1003.87
2017-11-11T07:20:38.888Z,1003.83
2017-11-11T07:21:47.514Z,1003.81
2017-11-11T07:22:56.131Z,1003.85
2017-11-11T07:24:04.765Z,1003.81
2017-11-11T07:25:13.371Z,1003.82
2017-11-11T07:26:22.002Z,1003.78
2017-11-11T07:27:30.977Z,1003.8
2017-11-11T07:28:39.597Z,1003.78
2017-11-11T07:29:48.260Z,1003.76
2017-11-11T07:30:56.843Z,1003.76
2017-11-11T07:32:05.465Z,1003.77
2017-11-11T07:33:14.084Z,1003.8
2017-11-11T07:34:23.383Z,1003.78
2017-11-11T07:35:32.004Z,1003.78
2017-11-11T07:36:40.624Z,1003.79
2017-11-11T07:37:49.256Z,1003.75
2017-11-11T07:38:57.865Z,1003.79
2017-11-11T07:40:06.497Z,1003.76
2017-11-11T07:41:15.114Z,1003.72
2017-11-11T07:42:24.068Z,1003.73
2017-11-11T07:43:33.027Z,1003.73
2017-11-11T07:44:41.650Z,1003.69
2017-11-11T07:45:50.270Z,1003.71
2017-11-11T07:46:58.896Z,1003.71
2017-11-11T07:48:07.520Z,1003.71
2017-11-11T07:49:16.473Z,1003.74
2017-11-11T07:50:25.096Z,1003.69
2017-11-11T07:51:33.720Z,1003.71
2017-11-11T07:52:42.337Z,1003.71
2017-11-11T07:53:50.968Z,1003.72
2017-11-11T07:54:59.585Z,1003.64
2017-11-11T07:56:08.207Z,1003.65
2017-11-11T07:57:17.160Z,1003.59
2017-11-11T07:58:25.777Z,1003.58
2017-11-11T07:59:34.402Z,1003.55
2017-11-11T08:00:43.024Z,1003.57
2017-11-11T08:01:51.639Z,1003.56
2017-11-11T08:03:00.263Z,1003.55
2017-11-11T08:04:08.894Z,1003.53
2017-11-11T08:05:17.514Z,1003.48
2017-11-11T08:06:26.135Z,1003.48
2017-11-11T08:07:34.766Z,1003.52
2017-11-11T08:08:43.384Z,1003.48
2017-11-11T08:09:52.013Z,1003.45
2017-11-11T08:11:00.625Z,1003.43
2017-11-11T08:12:09.248Z,1003.44
2017-11-11T08:13:17.873Z,1003.44
2017-11-11T08:14:26.492Z,1003.45
2017-11-11T08:15:35.123Z,1003.47
2017-11-11T08:16:43.741Z,1003.47
2017-11-11T08:17:52.363Z,1003.52
2017-11-11T08:19:00.990Z,1003.52
2017-11-11T08:20:09.610Z,1003.56
2017-11-11T08:21:18.234Z,1003.57
2017-11-11T08:22:27.199Z,1003.55
2017-11-11T08:23:35.826Z,1003.51
2017-11-11T08:24:44.451Z,1003.46
2017-11-11T08:25:53.066Z,1003.43
2017-11-11T08:27:01.691Z,1003.45
2017-11-11T08:28:10.316Z,1003.47
2017-11-11T08:29:18.932Z,1003.45
2017-11-11T08:30:27.555Z,1003.49
2017-11-11T08:31:36.179Z,1003.41
2017-11-11T08:32:44.809Z,1003.43
2017-11-11T08:33:53.753Z,1003.41
2017-11-11T08:35:02.713Z,1003.44
2017-11-11T08:36:11.333Z,1003.4
2017-11-11T08:37:19.962Z,1003.31
2017-11-11T08:38:28.574Z,1003.31
2017-11-11T08:39:37.203Z,1003.28
2017-11-11T08:40:45.828Z,1003.32
2017-11-11T08:41:54.877Z,1003.29
2017-11-11T08:43:03.501Z,1003.27
2017-11-11T08:44:12.227Z,1003.3
2017-11-11T08:45:20.977Z,1003.3
2017-11-11T08:46:30.389Z,1003.26
2017-11-11T08:47:39.047Z,1003.25
2017-11-11T08:48:47.670Z,1003.2
2017-11-11T08:49:56.492Z,1003.21
2017-11-11T08:51:05.120Z,1003.19
2017-11-11T08:52:13.736Z,1003.2
2017-11-11T08:53:22.703Z,1003.2
2017-11-11T08:54:31.324Z,1003.1
2017-11-11T08:55:39.944Z,1003.13
2017-11-11T08:56:48.574Z,1003.15
2017-11-11T08:57:57.193Z,1003.19
2017-11-11T08:59:05.814Z,1003.17
2017-11-11T09:00:14.980Z,1003.18
2017-11-11T09:01:23.603Z,1003.2
2017-11-11T09:02:32.225Z,1003.26
2017-11-11T09:03:40.850Z,1003.24
2017-11-11T09:04:49.476Z,1003.16
2017-11-11T09:05:58.091Z,1003.18
2017-11-11T09:07:06.721Z,1003.2
2017-11-11T09:08:15.343Z,1003.19
2017-11-11T09:09:23.971Z,1003.19
2017-11-11T09:10:32.937Z,1003.18
2017-11-11T09:11:41.550Z,1003.15
2017-11-11T09:12:50.178Z,1003.16
2017-11-11T09:13:58.800Z,1003.2
2017-11-11T09:15:07.430Z,1003.12
2017-11-11T09:16:16.054Z,1003.15
2017-11-11T09:17:24.678Z,1003.18
2017-11-11T09:18:33.303Z,1003.16
2017-11-11T09:19:41.927Z,1003.14
2017-11-11T09:20:50.543Z,1003.16
2017-11-11T09:21:59.170Z,1003.11
2017-11-11T09:23:07.799Z,1003.06
2017-11-11T09:24:16.420Z,1003.09
2017-11-11T09:25:25.042Z,1003.1
2017-11-11T09:26:33.663Z,1003.07
2017-11-11T09:27:42.292Z,1003.05
2017-11-11T09:28:50.916Z,1003.06
2017-11-11T09:29:59.534Z,1003.03
2017-11-11T09:31:08.163Z,1003.06
2017-11-11T09:32:16.785Z,1003.07
2017-11-11T09:33:25.401Z,1003.08
2017-11-11T09:34:34.027Z,1003.07
2017-11-11T09:35:42.652Z,1003.09
2017-11-11T09:36:51.277Z,1003.06
2017-11-11T09:37:59.904Z,1003.08
2017-11-11T09:39:08.522Z,1003.09
2017-11-11T09:40:17.481Z,1003.01
2017-11-11T09:41:26.112Z,1003.02
2017-11-11T09:42:34.731Z,1003.01
2017-11-11T09:43:43.355Z,1002.98
2017-11-11T09:44:51.978Z,1002.98
2017-11-11T09:46:00.604Z,1003.02
2017-11-11T09:47:09.576Z,1002.98
2017-11-11T09:48:18.208Z,1002.96
2017-11-11T09:49:26.829Z,1002.93
2017-11-11T09:50:35.788Z,1002.92
2017-11-11T09:51:44.407Z,1002.91
2017-11-11T09:52:53.031Z,1002.93
2017-11-11T09:54:01.660Z,1002.84
2017-11-11T09:55:10.280Z,1002.89
2017-11-11T09:56:19.247Z,1002.85
2017-11-11T09:57:27.876Z,1002.88
2017-11-11T09:58:36.497Z,1002.84
2017-11-11T09:59:45.125Z,1002.82
2017-11-11T10:00:53.750Z,1002.75
2017-11-11T10:02:02.375Z,1002.79
2017-11-11T10:03:10.993Z,1002.73
2017-11-11T10:04:19.619Z,1002.7
2017-11-11T10:05:28.238Z,1002.72
2017-11-11T10:06:36.869Z,1002.73
2017-11-11T10:07:45.493Z,1002.68
2017-11-11T10:08:54.113Z,1002.68
2017-11-11T10:10:02.742Z,1002.7
2017-11-11T10:11:11.364Z,1002.67
2017-11-11T10:12:19.986Z,1002.63
2017-11-11T10:13:28.607Z,1002.67
2017-11-11T10:14:37.230Z,1002.62
2017-11-11T10:15:45.861Z,1002.63
2017-11-11T10:16:54.481Z,1002.63
2017-11-11T10:18:03.103Z,1002.63
2017-11-11T10:19:11.746Z,1002.59
2017-11-11T10:20:20.389Z,1002.57
2017-11-11T10:21:28.978Z,1002.55
2017-11-11T10:22:37.934Z,1002.5
2017-11-11T10:23:46.557Z,1002.53
2017-11-11T10:24:55.188Z,1002.53
2017-11-11T10:26:03.814Z,1002.53
2017-11-11T10:27:12.769Z,1002.56
2017-11-11T10:28:21.398Z,1002.48
2017-11-11T10:29:30.024Z,1002.55
2017-11-11T10:30:38.982Z,1002.52
2017-11-11T10:31:47.609Z,1002.46
2017-11-11T10:32:56.233Z,1002.42
2017-11-11T10:34:04.851Z,1002.46
2017-11-11T10:35:13.475Z,1002.45
2017-11-11T10:36:22.105Z,1002.41
2017-11-11T10:37:30.733Z,1002.43
2017-11-11T10:38:39.353Z,1002.41
2017-11-11T10:39:47.977Z,1002.33
2017-11-11T10:40:56.604Z,1002.35
2017-11-11T10:42:05.221Z,1002.3
2017-11-11T10:43:13.847Z,1002.3
2017-11-11T10:44:22.471Z,1002.26
2017-11-11T10:45:31.093Z,1002.28
2017-11-11T10:46:39.726Z,1002.26
2017-11-11T10:47:48.346Z,1002.24
2017-11-11T10:48:57.307Z,1002.25
2017-11-11T10:50:06.265Z,1002.2
2017-11-11T10:51:14.888Z,1002.21
2017-11-11T10:52:23.525Z,1002.22
2017-11-11T10:53:32.147Z,1002.15
2017-11-11T10:54:40.767Z,1002.13
2017-11-11T10:55:49.399Z,1002.11
2017-11-11T10:56:58.024Z,1002.15
2017-11-11T10:58:06.655Z,1002.08
2017-11-11T10:59:15.273Z,1002.11
2017-11-11T11:00:23.900Z,1002.1
2017-11-11T11:01:32.861Z,1002.06
2017-11-11T11:02:41.529Z,1002.02
2017-11-11T11:03:50.111Z,1001.99
2017-11-11T11:04:58.740Z,1001.99
2017-11-11T11:06:07.700Z,1001.98
2017-11-11T11:07:16.321Z,1001.97
2017-11-11T11:08:24.946Z,1001.96
2017-11-11T11:09:33.575Z,1001.97
2017-11-11T11:10:42.192Z,1001.92
2017-11-11T11:11:50.818Z,1001.86
2017-11-11T11:12:59.446Z,1001.89
2017-11-11T11:14:08.078Z,1001.86
2017-11-11T11:15:16.700Z,1001.86
2017-11-11T11:16:25.321Z,1001.85
2017-11-11T11:17:33.944Z,1001.84
2017-11-11T11:18:42.561Z,1001.88
2017-11-11T11:19:51.185Z,1001.82
2017-11-11T11:20:59.804Z,1001.79
2017-11-11T11:22:08.788Z,1001.79
2017-11-11T11:23:17.420Z,1001.76
2017-11-11T11:24:26.045Z,1001.76
2017-11-11T11:25:34.671Z,1001.72
2017-11-11T11:26:43.631Z,1001.69
2017-11-11T11:27:52.254Z,1001.67
2017-11-11T11:29:00.878Z,1001.65
2017-11-11T11:30:09.503Z,1001.67
2017-11-11T11:31:18.465Z,1001.66
2017-11-11T11:32:27.080Z,1001.64
2017-11-11T11:33:35.712Z,1001.66
2017-11-11T11:34:44.332Z,1001.64
2017-11-11T11:35:52.961Z,1001.65
2017-11-11T11:37:01.585Z,1001.69
2017-11-11T11:38:10.203Z,1001.68
2017-11-11T11:39:18.826Z,1001.74
2017-11-11T11:40:27.453Z,1001.7
2017-11-11T11:41:36.072Z,1001.73
2017-11-11T11:42:44.697Z,1001.73
2017-11-11T11:43:53.325Z,1001.79
2017-11-11T11:45:01.945Z,1001.71
2017-11-11T11:46:10.569Z,1001.68
2017-11-11T11:47:19.203Z,1001.71
2017-11-11T11:48:28.159Z,1001.71
2017-11-11T11:49:36.789Z,1001.68
2017-11-11T11:50:45.403Z,1001.68
2017-11-11T11:51:54.033Z,1001.67
2017-11-11T11:53:02.993Z,1001.69
2017-11-11T11:54:11.615Z,1001.73
2017-11-11T11:55:21.672Z,1001.69
2017-11-11T11:56:30.296Z,1001.66
2017-11-11T11:57:38.920Z,1001.68
2017-11-11T11:58:47.539Z,1001.65
2017-11-11T11:59:56.172Z,1001.67
2017-11-11T12:01:04.916Z,1001.7
2017-11-11T12:02:14.354Z,1001.75
2017-11-11T12:03:22.999Z,1001.74
2017-11-11T12:04:31.712Z,1001.69
2017-11-11T12:05:40.355Z,1001.69
2017-11-11T12:06:49.053Z,1001.69
2017-11-11T12:07:57.675Z,1001.66
2017-11-11T12:09:06.309Z,1001.62
2017-11-11T12:10:15.257Z,1001.65
2017-11-11T12:11:23.972Z,1001.64
2017-11-11T12:12:33.776Z,1001.62
2017-11-11T12:13:42.734Z,1001.62
2017-11-11T12:14:51.366Z,1001.59
2017-11-11T12:15:59.990Z,1001.56
2017-11-11T12:17:08.616Z,1001.57
2017-11-11T12:18:17.575Z,1001.55
2017-11-11T12:19:26.202Z,1001.54
2017-11-11T12:20:34.832Z,1001.56
2017-11-11T12:21:43.457Z,1001.5
2017-11-11T12:22:52.083Z,1001.46
2017-11-11T12:24:00.710Z,1001.42
2017-11-11T12:25:09.332Z,1001.41
2017-11-11T12:26:17.962Z,1001.35
2017-11-11T12:27:26.597Z,1001.31
2017-11-11T12:28:35.287Z,1001.32
2017-11-11T12:29:44.862Z,1001.3
2017-11-11T12:30:53.491Z,1001.28
2017-11-11T12:32:02.109Z,1001.27
2017-11-11T12:33:10.740Z,1001.24
2017-11-11T12:34:19.371Z,1001.2
2017-11-11T12:35:28.324Z,1001.22
2017-11-11T12:36:36.955Z,1001.21
2017-11-11T12:37:45.577Z,1001.19
2017-11-11T12:40:33.036Z,1001.16
2017-11-11T12:41:41.953Z,1001.13
2017-11-11T12:42:50.586Z,1001.06
2017-11-11T12:43:59.342Z,1001.02
2017-11-11T12:45:08.034Z,1001.03
2017-11-11T12:46:16.756Z,1001.07
2017-11-11T12:47:25.437Z,1001.07
2017-11-11T12:48:34.356Z,1001.04
2017-11-11T12:49:43.425Z,1001.02
2017-11-11T12:50:52.167Z,1000.96
2017-11-11T12:52:01.108Z,1000.98
2017-11-11T12:53:09.796Z,1000.99
2017-11-11T12:54:18.444Z,1000.98
2017-11-11T12:55:27.193Z,1000.97
2017-11-11T12:56:35.959Z,1000.98
2017-11-11T12:57:45.187Z,1000.95
2017-11-11T12:58:57.096Z,1000.99
2017-11-11T13:00:05.731Z,1000.95
2017-11-11T13:01:14.344Z,1000.97
2017-11-11T13:02:22.969Z,1000.91
2017-11-11T13:03:31.593Z,1000.89
2017-11-11T13:04:40.214Z,1000.87
2017-11-11T13:05:48.836Z,1000.84
2017-11-11T13:06:57.468Z,1000.81
2017-11-11T13:08:06.093Z,1000.81
2017-11-11T13:09:14.717Z,1000.79
2017-11-11T13:10:23.338Z,1000.75
2017-11-11T13:11:31.963Z,1000.81
2017-11-11T13:12:40.590Z,1000.82
2017-11-11T13:13:49.215Z,1000.82
2017-11-11T13:14:57.838Z,1000.84
2017-11-11T13:16:06.471Z,1000.86
2017-11-11T13:17:15.095Z,1000.84
2017-11-11T13:18:23.722Z,1000.83
2017-11-11T13:19:32.351Z,1000.83
2017-11-11T13:20:40.982Z,1000.79
2017-11-11T13:21:49.616Z,1000.81
2017-11-11T13:22:58.236Z,1000.81
2017-11-11T13:24:06.861Z,1000.78
2017-11-11T13:25:15.489Z,1000.79
2017-11-11T13:26:24.251Z,1000.79
2017-11-11T13:27:32.874Z,1000.79
2017-11-11T13:28:41.499Z,1000.74
2017-11-11T13:29:50.127Z,1000.73
2017-11-11T13:30:58.744Z,1000.72
2017-11-11T13:32:07.374Z,1000.72
2017-11-11T13:33:16.328Z,1000.73
2017-11-11T13:34:24.959Z,1000.73
2017-11-11T13:35:33.581Z,1000.68
2017-11-11T13:36:42.206Z,1000.66
2017-11-11T13:37:50.837Z,1000.68
2017-11-11T13:38:59.474Z,1000.72
2017-11-11T13:40:08.435Z,1000.7
2017-11-11T13:41:17.059Z,1000.72
2017-11-11T13:42:25.689Z,1000.69
2017-11-11T13:43:34.307Z,1000.69
2017-11-11T13:44:43.273Z,1000.72
2017-11-11T13:45:51.899Z,1000.71
2017-11-11T13:47:00.542Z,1000.68
2017-11-11T13:48:09.502Z,1000.67
2017-11-11T13:49:18.124Z,1000.7
2017-11-11T13:50:26.832Z,1000.68
2017-11-11T13:51:35.455Z,1000.72
2017-11-11T13:52:44.076Z,1000.68
2017-11-11T13:53:53.048Z,1000.73
2017-11-11T13:55:01.675Z,1000.8